createdAt,value
2022-11-05T00:05:08.847Z,42.48
2022-11-05T00:10:18.277Z,42.59
2022-11-05T00:15:38.363Z,42.42
2022-11-05T00:20:40.020Z,42.63
2022-11-05T00:25:41.833Z,42.55
2022-11-05T00:30:43.582Z,42.37
2022-11-05T00:35:45.353Z,42.30
2022-11-05T00:40:47.153Z,42.57
2022-11-05T00:45:48.988Z,42.79
2022-11-05T00:50:50.776Z,42.53
2022-11-05T00:55:52.585Z,42.39
2022-11-05T01:00:56.380Z,42.47
2022-11-05T01:06:18.260Z,42.70
2022-11-05T01:11:37.218Z,42.41
2022-11-05T01:16:40.133Z,42.45
2022-11-05T01:21:41.900Z,42.77
2022-11-05T01:26:43.662Z,42.68
2022-11-05T01:31:45.632Z,42.36
2022-11-05T01:36:47.367Z,42.43
2022-11-05T01:41:49.170Z,42.61
2022-11-05T01:46:51.052Z,42.35
2022-11-05T01:51:52.945Z,42.25
2022-11-05T01:57:01.098Z,42.61
2022-11-05T02:02:04.112Z,42.56
2022-11-05T02:07:08.027Z,42.56
2022-11-05T02:12:10.945Z,42.29
2022-11-05T02:17:41.607Z,42.59
2022-11-05T02:23:21.835Z,42.48
2022-11-05T02:29:00.984Z,42.53
2022-11-05T02:34:15.108Z,42.52
2022-11-05T02:39:39.167Z,42.68
2022-11-05T02:44:56.367Z,42.66
2022-11-05T02:50:21.314Z,42.51
2022-11-05T02:55:26.310Z,42.19
2022-11-05T03:00:45.112Z,42.66
2022-11-05T03:06:00.892Z,42.53
2022-11-05T03:11:14.671Z,42.50
2022-11-05T03:16:22.076Z,42.34
2022-11-05T03:21:47.543Z,42.47
2022-11-05T03:26:57.335Z,42.17
2022-11-05T03:32:03.138Z,42.27
2022-11-05T03:37:06.898Z,42.56
2022-11-05T03:42:14.253Z,42.54
2022-11-05T03:47:24.002Z,42.22
2022-11-05T03:52:36.383Z,42.24
2022-11-05T03:57:41.643Z,42.28
2022-11-05T04:02:43.533Z,42.06
2022-11-05T04:08:03.883Z,41.95
2022-11-05T04:13:24.075Z,42.21
2022-11-05T04:18:25.739Z,42.31
2022-11-05T04:23:46.115Z,42.17
2022-11-05T04:29:08.001Z,42.32
2022-11-05T04:34:09.781Z,42.36
2022-11-05T04:39:11.712Z,42.02
2022-11-05T04:44:13.989Z,42.26
2022-11-05T04:49:15.654Z,42.17
2022-11-05T04:54:17.915Z,41.97
2022-11-05T04:59:19.614Z,42.06
2022-11-05T05:04:21.432Z,42.19
2022-11-05T05:09:23.169Z,42.29
2022-11-05T05:14:25.066Z,42.16
2022-11-05T05:19:27.155Z,42.03
2022-11-05T05:24:28.961Z,42.18
2022-11-05T05:29:30.803Z,41.83
2022-11-05T05:34:32.559Z,42.13
2022-11-05T05:39:34.624Z,42.17
2022-11-05T05:44:36.577Z,42.15
2022-11-05T05:49:38.588Z,42.03
2022-11-05T05:54:42.961Z,41.85
2022-11-05T05:59:44.916Z,41.89
2022-11-05T06:04:46.691Z,42.08
2022-11-05T06:09:48.531Z,41.80
2022-11-05T06:14:50.356Z,42.05
2022-11-05T06:19:52.119Z,41.97
2022-11-05T06:24:53.920Z,42.13
2022-11-05T06:29:56.300Z,41.93
2022-11-05T06:34:58.018Z,42.02
2022-11-05T06:40:00.747Z,41.89
2022-11-05T06:45:02.837Z,41.95
2022-11-05T06:50:04.794Z,41.90
2022-11-05T06:55:06.799Z,42.24
2022-11-05T07:00:09.186Z,42.10
2022-11-05T07:05:11.938Z,41.68
2022-11-05T07:10:16.931Z,41.78
2022-11-05T07:15:18.849Z,41.93
2022-11-05T07:20:20.665Z,41.82
2022-11-05T07:25:22.473Z,41.82
2022-11-05T07:30:24.588Z,41.75
2022-11-05T07:35:26.811Z,41.88
2022-11-05T07:40:29.897Z,41.79
2022-11-05T07:45:31.876Z,41.83
2022-11-05T07:50:37.850Z,41.68
2022-11-05T07:55:42.927Z,42.16
2022-11-05T08:00:44.829Z,42.02
2022-11-05T08:05:48.157Z,41.77
2022-11-05T08:10:49.999Z,42.62
2022-11-05T08:15:51.753Z,41.97
2022-11-05T08:20:53.493Z,43.14
2022-11-05T08:25:56.944Z,42.96
2022-11-05T08:30:58.942Z,43.07
2022-11-05T08:36:04.968Z,43.17
2022-11-05T08:41:07.126Z,42.75
2022-11-05T08:46:09.101Z,41.87
2022-11-05T08:51:10.945Z,42.93
2022-11-05T08:56:13.416Z,43.81
2022-11-05T09:01:15.399Z,43.31
2022-11-05T09:06:17.417Z,43.32
2022-11-05T09:11:19.031Z,43.35
2022-11-05T09:16:23.061Z,43.16
2022-11-05T09:21:24.722Z,43.35
2022-11-05T09:26:27.251Z,43.26
2022-11-05T09:31:29.152Z,43.52
2022-11-05T09:36:31.301Z,43.55
2022-11-05T09:41:37.644Z,43.84
2022-11-05T09:46:48.083Z,43.06
2022-11-05T09:51:50.403Z,44.24
2022-11-05T09:56:56.136Z,44.70
2022-11-05T10:02:47.299Z,44.46
2022-11-05T10:07:53.524Z,44.06
2022-11-05T10:12:59.933Z,43.71
2022-11-05T10:18:19.314Z,43.72
2022-11-05T10:23:22.303Z,43.62
2022-11-05T10:28:26.567Z,43.25
2022-11-05T10:33:30.219Z,43.22
2022-11-05T10:38:32.737Z,43.85
2022-11-05T10:43:46.007Z,43.57
2022-11-05T10:49:10.346Z,43.46
2022-11-05T10:54:23.316Z,42.78
2022-11-05T10:59:30.292Z,42.65
2022-11-05T11:04:37.538Z,42.40
2022-11-05T11:09:39.746Z,42.47
2022-11-05T11:14:41.747Z,42.25
2022-11-05T11:19:43.626Z,42.36
2022-11-05T11:24:51.156Z,42.98
2022-11-05T11:29:59.704Z,42.92
2022-11-05T11:35:01.830Z,42.52
2022-11-05T11:40:21.578Z,42.93
2022-11-05T11:45:49.808Z,42.74
2022-11-05T11:50:52.158Z,42.96
2022-11-05T11:55:57.476Z,42.73
2022-11-05T12:01:13.021Z,42.96
2022-11-05T12:06:29.844Z,42.86
2022-11-05T12:12:06.155Z,42.57
2022-11-05T12:17:44.893Z,42.39
2022-11-05T12:22:58.851Z,42.66
2022-11-05T12:28:25.316Z,42.51
2022-11-05T12:33:58.709Z,42.72
2022-11-05T12:39:24.733Z,43.06
2022-11-05T12:44:38.215Z,42.57
2022-11-05T12:49:47.890Z,42.58
2022-11-05T12:54:55.469Z,42.47
2022-11-05T13:00:18.678Z,42.66
2022-11-05T13:05:30.040Z,42.41
2022-11-05T13:10:37.931Z,42.52
2022-11-05T13:15:46.555Z,42.71
2022-11-05T13:20:51.435Z,42.85
2022-11-05T13:26:00.137Z,42.58
2022-11-05T13:31:06.004Z,42.63
2022-11-05T13:36:33.004Z,42.39
2022-11-05T13:42:00.255Z,42.60
2022-11-05T13:47:14.434Z,42.78
2022-11-05T13:52:35.843Z,42.98
2022-11-05T13:58:19.447Z,42.86
2022-11-05T14:03:22.279Z,42.74
2022-11-05T14:08:29.618Z,42.94
2022-11-05T14:13:44.215Z,42.92
2022-11-05T14:18:56.430Z,42.80
2022-11-05T14:24:00.837Z,42.89
2022-11-05T14:29:05.648Z,43.06
2022-11-05T14:34:10.173Z,43.03
2022-11-05T14:39:29.301Z,42.87
2022-11-05T14:44:35.466Z,42.83
2022-11-05T14:49:47.861Z,42.78
2022-11-05T14:54:57.824Z,42.67
2022-11-05T15:00:01.177Z,42.80
2022-11-05T15:05:41.347Z,42.75
2022-11-05T15:10:44.091Z,43.00
2022-11-05T15:15:50.833Z,42.70
2022-11-05T15:20:57.163Z,42.56
2022-11-05T15:26:09.463Z,42.97
2022-11-05T15:31:14.151Z,42.54
2022-11-05T15:36:28.075Z,42.55
2022-11-05T15:41:33.876Z,42.51
2022-11-05T15:46:35.696Z,42.51
2022-11-05T15:51:38.044Z,42.92
2022-11-05T15:56:53.617Z,42.60
2022-11-05T16:02:18.520Z,42.79
2022-11-05T16:07:21.154Z,42.41
2022-11-05T16:12:36.973Z,42.64
2022-11-05T16:17:58.612Z,42.78
2022-11-05T16:23:03.672Z,42.64
2022-11-05T16:28:19.752Z,42.57
2022-11-05T16:33:22.066Z,42.47
2022-11-05T16:38:24.306Z,42.38
2022-11-05T16:43:26.824Z,42.47
2022-11-05T16:48:28.674Z,42.51
2022-11-05T16:53:30.393Z,42.73
2022-11-05T16:58:32.808Z,42.55
2022-11-05T17:03:34.633Z,42.59
2022-11-05T17:08:36.395Z,42.51
2022-11-05T17:13:38.087Z,42.78
2022-11-05T17:18:41.064Z,42.87
2022-11-05T17:23:42.925Z,42.67
2022-11-05T17:28:44.825Z,42.37
2022-11-05T17:33:46.693Z,42.53
2022-11-05T17:38:48.633Z,42.36
2022-11-05T17:43:55.903Z,42.68
2022-11-05T17:48:58.279Z,42.36
2022-11-05T17:54:00.440Z,42.31
2022-11-05T17:59:03.232Z,42.38
2022-11-05T18:04:08.892Z,42.40
2022-11-05T18:09:11.567Z,42.07
2022-11-05T18:14:13.258Z,42.44
2022-11-05T18:19:14.987Z,42.39
2022-11-05T18:24:16.872Z,42.32
2022-11-05T18:29:18.608Z,42.41
2022-11-05T18:34:20.265Z,42.36
2022-11-05T18:39:22.042Z,42.40
2022-11-05T18:44:24.896Z,42.46
2022-11-05T18:49:27.283Z,42.49
2022-11-05T18:54:28.990Z,42.23
2022-11-05T18:59:37.658Z,42.20
2022-11-05T19:04:46.863Z,42.60
2022-11-05T19:09:57.070Z,42.72
2022-11-05T19:15:02.317Z,42.47
2022-11-05T19:20:05.403Z,42.52
2022-11-05T19:25:07.786Z,42.61
2022-11-05T19:30:10.046Z,42.48
2022-11-05T19:35:11.867Z,42.31
2022-11-05T19:40:13.755Z,42.39
2022-11-05T19:45:44.145Z,42.52
2022-11-05T19:50:41.577Z,42.61
2022-11-05T19:55:45.089Z,42.47
2022-11-05T20:00:46.971Z,42.94
2022-11-05T20:05:48.646Z,42.53
2022-11-05T20:10:54.620Z,42.78
2022-11-05T20:15:56.899Z,42.19
2022-11-05T20:21:09.709Z,42.62
2022-11-05T20:26:12.286Z,43.27
2022-11-05T20:31:16.179Z,43.82
2022-11-05T20:36:22.247Z,44.56
2022-11-05T20:41:25.089Z,44.15
2022-11-05T20:46:27.230Z,44.71
2022-11-05T20:51:29.066Z,44.77
2022-11-05T20:56:34.780Z,44.46
2022-11-05T21:01:36.644Z,44.58
2022-11-05T21:06:38.527Z,44.80
2022-11-05T21:11:58.865Z,44.41
2022-11-05T21:17:00.464Z,44.56
2022-11-05T21:22:03.886Z,44.31
2022-11-05T21:27:05.746Z,44.24
2022-11-05T21:32:07.443Z,44.36
2022-11-05T21:37:09.075Z,43.89
2022-11-05T21:42:10.850Z,43.74
2022-11-05T21:47:13.005Z,43.50
2022-11-05T21:52:33.894Z,43.36
2022-11-05T21:57:54.131Z,43.21
2022-11-05T22:02:56.061Z,43.16
2022-11-05T22:07:57.963Z,43.23
2022-11-05T22:13:00.776Z,43.28
2022-11-05T22:18:02.580Z,43.00
2022-11-05T22:23:08.592Z,43.14
2022-11-05T22:28:13.085Z,42.83
2022-11-05T22:33:15.289Z,42.93
2022-11-05T22:38:17.061Z,42.80
2022-11-05T22:43:18.742Z,42.77
2022-11-05T22:48:20.503Z,42.89
2022-11-05T22:53:22.261Z,42.81
2022-11-05T22:58:24.210Z,42.91
2022-11-05T23:03:27.459Z,42.74
2022-11-05T23:08:48.672Z,43.05
2022-11-05T23:13:50.673Z,42.75
2022-11-05T23:19:21.296Z,42.83
2022-11-05T23:24:22.932Z,43.05
2022-11-05T23:29:26.644Z,42.61
2022-11-05T23:34:28.870Z,42.73
2022-11-05T23:39:30.755Z,42.81
2022-11-05T23:44:51.082Z,42.86
2022-11-05T23:49:53.057Z,42.53
2022-11-05T23:54:54.793Z,42.90
2022-11-05T23:59:56.535Z,42.60
